Time;durP1;ratioP1;P1;durP2;ratioP2;P2;SDS_P1;SDS_P2;PMS_P1;PMS_P2;Temp;Humidity;BMP_temperature;BMP_pressure;BME280_temperature;BME280_humidity;BME280_pressure;Samples;Min_cycle;Max_cycle;Signal;HPM_P1;HPM_P2
2022/07/19 00:01:44;;;;;;;3.85;1.50;;;;;;;21.23;51.21;100319.13;5089440;28;20490;-42
2022/07/19 00:04:10;;;;;;;2.25;1.38;;;;;;;21.09;50.87;100319.56;5089553;28;20027;-43
2022/07/19 00:06:36;;;;;;;2.53;1.40;;;;;;;20.94;51.46;100329.44;5089649;28;20395;-43
2022/07/19 00:09:02;;;;;;;2.78;1.55;;;;;;;20.94;50.95;100319.41;5089305;28;20363;-44
2022/07/19 00:11:28;;;;;;;4.63;1.60;;;;;;;21.02;50.98;100327.09;5090027;28;20031;-44
2022/07/19 00:13:53;;;;;;;2.53;1.50;;;;;;;20.88;51.45;100325.88;5089224;28;20024;-42
2022/07/19 00:16:19;;;;;;;4.13;1.55;;;;;;;20.82;51.60;100330.41;5089281;28;20471;-43
2022/07/19 00:18:44;;;;;;;4.00;1.63;;;;;;;20.72;52.14;100324.13;5089311;28;20483;-45
2022/07/19 00:21:10;;;;;;;3.28;1.80;;;;;;;20.75;52.30;100329.00;5089487;28;20356;-42
2022/07/19 00:23:35;;;;;;;2.78;1.70;;;;;;;20.49;52.89;100332.25;5089109;28;20031;-41
2022/07/19 00:26:02;;;;;;;3.53;1.65;;;;;;;20.69;52.86;100325.44;5089442;28;20107;-43
2022/07/19 00:28:27;;;;;;;1.98;1.48;;;;;;;20.80;52.49;100320.94;5089248;28;20016;-42
2022/07/19 00:30:53;;;;;;;6.47;1.73;;;;;;;20.59;53.06;100319.91;5089827;28;20019;-44
2022/07/19 00:33:18;;;;;;;2.35;1.70;;;;;;;20.49;53.29;100320.63;5092415;28;20032;-42
2022/07/19 00:35:44;;;;;;;5.20;1.90;;;;;;;20.57;53.19;100322.06;5092981;28;20032;-43
2022/07/19 00:38:11;;;;;;;3.47;1.70;;;;;;;20.57;53.17;100324.75;5092559;28;20020;-41
2022/07/19 00:40:38;;;;;;;2.90;1.80;;;;;;;20.51;53.19;100322.00;5091997;28;20027;-42
2022/07/19 00:43:04;;;;;;;1.75;1.50;;;;;;;20.69;52.65;100317.31;5092634;28;20016;-42
2022/07/19 00:45:30;;;;;;;4.85;1.85;;;;;;;20.55;52.83;100316.91;5092777;28;20100;-43
2022/07/19 00:47:56;;;;;;;4.80;1.67;;;;;;;20.85;51.79;100318.28;5092627;28;20032;-45
2022/07/19 00:50:22;;;;;;;5.15;1.90;;;;;;;20.67;52.25;100309.47;5092464;28;20048;-43
2022/07/19 00:52:54;;;;;;;3.38;1.70;;;;;;;20.38;53.34;100319.69;5092126;28;20119;-43
2022/07/19 00:55:22;;;;;;;2.83;1.77;;;;;;;20.58;52.48;100312.84;5083546;28;20025;-44
2022/07/19 00:57:48;;;;;;;2.85;1.80;;;;;;;20.54;52.40;100317.16;5072192;28;20096;-44
2022/07/19 01:00:16;;;;;;;2.53;1.33;;;;;;;20.58;52.18;100318.25;5072163;28;20059;-43
2022/07/19 01:02:42;;;;;;;2.05;1.50;;;;;;;20.54;51.98;100317.16;5071720;28;20020;-43
2022/07/19 01:05:09;;;;;;;2.47;1.40;;;;;;;20.62;51.36;100317.53;5071904;28;20407;-42
2022/07/19 01:07:37;;;;;;;4.97;1.67;;;;;;;20.44;51.98;100315.97;5072099;28;20027;-43
2022/07/19 01:10:04;;;;;;;3.15;1.60;;;;;;;20.58;51.94;100320.97;5072085;28;20080;-43
2022/07/19 01:12:29;;;;;;;2.53;1.73;;;;;;;20.47;51.99;100314.66;5071178;28;20047;-42
2022/07/19 01:14:58;;;;;;;5.47;1.65;;;;;;;20.50;51.80;100303.31;5071460;28;20456;-42
2022/07/19 01:17:24;;;;;;;2.72;1.40;;;;;;;20.30;52.20;100301.25;5072032;28;20025;-43
2022/07/19 01:19:50;;;;;;;4.55;1.60;;;;;;;20.36;51.87;100307.53;5071061;28;20039;-42
2022/07/19 01:22:15;;;;;;;4.13;1.67;;;;;;;20.51;51.62;100304.97;5072009;28;20024;-43
2022/07/19 01:24:41;;;;;;;5.32;1.58;;;;;;;20.54;51.36;100303.63;5072100;28;20025;-44
2022/07/19 01:27:07;;;;;;;5.28;1.52;;;;;;;20.68;51.21;100302.19;5072141;28;20028;-43
2022/07/19 01:29:35;;;;;;;2.15;1.52;;;;;;;20.42;51.68;100301.09;5091763;28;20518;-42
2022/07/19 01:32:01;;;;;;;2.28;1.40;;;;;;;20.59;50.80;100298.28;5092136;28;20076;-42
2022/07/19 01:34:26;;;;;;;3.60;1.58;;;;;;;20.50;51.09;100301.47;5091817;28;20023;-41
2022/07/19 01:36:52;;;;;;;4.18;1.58;;;;;;;20.47;51.33;100307.38;5092393;28;20035;-41
2022/07/19 01:39:17;;;;;;;2.17;1.35;;;;;;;20.31;51.59;100303.69;5092256;28;20024;-42
2022/07/19 01:41:43;;;;;;;2.58;1.48;;;;;;;20.36;51.38;100299.41;5092272;28;20039;-43
2022/07/19 01:44:08;;;;;;;2.95;1.50;;;;;;;20.33;51.51;100295.31;5090616;28;20762;-42
2022/07/19 01:46:33;;;;;;;4.00;1.45;;;;;;;20.22;52.05;100297.13;5092236;28;20249;-43
2022/07/19 01:48:59;;;;;;;2.10;1.35;;;;;;;20.48;51.25;100303.56;5092112;28;20415;-42
2022/07/19 01:51:24;;;;;;;2.85;1.60;;;;;;;20.48;51.09;100300.88;5091842;28;20106;-44
2022/07/19 01:53:50;;;;;;;4.05;1.40;;;;;;;20.55;51.17;100303.38;5091625;28;20078;-42
2022/07/19 01:56:15;;;;;;;4.35;1.50;;;;;;;20.35;51.67;100305.88;5091785;28;20081;-43
2022/07/19 01:58:40;;;;;;;1.38;1.13;;;;;;;20.42;51.50;100304.59;5091850;28;20081;-43
2022/07/19 02:01:06;;;;;;;3.28;1.50;;;;;;;20.49;51.24;100318.72;5091765;28;20035;-43
2022/07/19 02:03:31;;;;;;;1.63;1.25;;;;;;;20.45;51.37;100312.22;5091631;28;20057;-44
2022/07/19 02:05:57;;;;;;;3.38;1.42;;;;;;;20.40;51.45;100314.84;5091708;28;20028;-42
2022/07/19 02:08:23;;;;;;;1.88;1.30;;;;;;;20.47;51.51;100323.59;5091482;28;20051;-42
2022/07/19 02:10:48;;;;;;;3.38;1.42;;;;;;;20.54;51.81;100317.16;5091325;28;20038;-43
2022/07/19 02:13:13;;;;;;;3.30;1.60;;;;;;;20.52;52.16;100320.09;5091280;28;20110;-42
2022/07/19 02:15:39;;;;;;;3.10;1.50;;;;;;;20.58;52.27;100318.25;5091090;28;20030;-43
2022/07/19 02:18:04;;;;;;;2.70;1.73;;;;;;;20.73;51.62;100325.75;5091480;28;20111;-42
2022/07/19 02:20:30;;;;;;;4.10;1.63;;;;;;;20.69;51.69;100322.72;5090310;28;20028;-44
2022/07/19 02:22:56;;;;;;;1.65;1.55;;;;;;;20.59;52.01;100322.63;5091221;28;20027;-45
2022/07/19 02:25:22;;;;;;;3.47;1.70;;;;;;;20.75;51.55;100316.28;5091423;28;20060;-44
2022/07/19 02:27:47;;;;;;;4.80;1.90;;;;;;;20.63;52.35;100326.47;5085901;28;20074;-44
2022/07/19 02:30:13;;;;;;;2.95;1.52;;;;;;;20.59;51.69;100320.72;5070867;28;20623;-43
2022/07/19 02:32:40;;;;;;;3.40;1.70;;;;;;;20.60;52.66;100316.16;5070908;28;20052;-45
2022/07/19 02:35:07;;;;;;;2.75;1.77;;;;;;;20.73;51.88;100312.22;5071100;28;20024;-44
2022/07/19 02:37:32;;;;;;;2.28;1.45;;;;;;;20.72;52.26;100308.72;5070545;28;20476;-45
2022/07/19 02:39:58;;;;;;;2.97;1.67;;;;;;;20.74;51.82;100317.38;5070971;28;20055;-44
2022/07/19 02:42:23;;;;;;;2.10;1.45;;;;;;;20.69;51.87;100320.88;5069492;28;20028;-43
2022/07/19 02:44:48;;;;;;;3.75;2.10;;;;;;;20.61;52.15;100328.59;5070576;28;20020;-43
2022/07/19 02:47:14;;;;;;;5.47;1.98;;;;;;;20.81;51.28;100320.69;5070473;28;20480;-45
2022/07/19 02:49:39;;;;;;;5.15;2.03;;;;;;;20.99;51.31;100319.47;5070833;28;20376;-44
2022/07/19 02:52:05;;;;;;;5.00;1.88;;;;;;;21.59;49.87;100313.94;5070886;28;20081;-36
2022/07/19 02:54:30;;;;;;;2.90;1.70;;;;;;;21.15;50.38;100319.59;5070044;28;20323;-37
2022/07/19 02:56:55;;;;;;;5.15;1.90;;;;;;;21.25;50.51;100325.09;5070548;28;20028;-37
2022/07/19 02:59:21;;;;;;;4.05;1.75;;;;;;;21.75;48.80;100320.25;5070351;28;20120;-37
2022/07/19 03:01:46;;;;;;;6.28;2.10;;;;;;;21.99;48.61;100321.44;5070582;28;20086;-36
2022/07/19 03:04:12;;;;;;;5.28;2.45;;;;;;;22.05;47.97;100320.38;5070447;28;20422;-36
2022/07/19 03:06:37;;;;;;;4.18;2.30;;;;;;;22.06;48.26;100319.28;5070491;28;20035;-37
2022/07/19 03:09:02;;;;;;;5.43;2.15;;;;;;;22.09;47.99;100325.28;5070291;28;20066;-37
2022/07/19 03:11:28;;;;;;;7.50;2.22;;;;;;;22.06;48.30;100318.47;5070746;28;20035;-37
2022/07/19 03:13:53;;;;;;;7.57;2.22;;;;;;;22.10;48.24;100325.00;5070137;28;20085;-37
2022/07/19 03:16:19;;;;;;;5.05;3.08;;;;;;;22.14;47.66;100323.41;5069913;28;20021;-37
2022/07/19 03:18:44;;;;;;;9.15;2.80;;;;;;;22.13;48.29;100323.66;5069938;28;20028;-37
2022/07/19 03:21:10;;;;;;;80.57;43.67;;;;;;;21.91;48.54;100302.97;5070139;28;20059;-36
2022/07/19 03:23:36;;;;;;;39.80;22.27;;;;;;;22.13;48.51;100327.19;5070167;28;20027;-36
2022/07/19 03:26:02;;;;;;;14.05;5.45;;;;;;;22.18;48.80;100335.34;5070119;28;20072;-37
2022/07/19 03:28:28;;;;;;;5.63;2.80;;;;;;;22.24;48.43;100339.69;5080860;28;20024;-36
2022/07/19 03:30:53;;;;;;;5.65;2.20;;;;;;;22.13;48.92;100338.03;5090390;28;20302;-37
2022/07/19 03:33:19;;;;;;;4.65;2.10;;;;;;;22.13;48.74;100335.31;5090265;28;20442;-37
2022/07/19 03:35:46;;;;;;;5.07;2.63;;;;;;;22.13;49.13;100343.44;5090354;28;20024;-36
2022/07/19 03:38:13;;;;;;;10.55;2.38;;;;;;;22.03;49.04;100325.25;5090478;28;20385;-42
2022/07/19 03:40:39;;;;;;;8.70;2.30;;;;;;;22.15;48.97;100338.56;5089934;28;20026;-42
2022/07/19 03:43:05;;;;;;;5.05;2.25;;;;;;;22.18;48.89;100335.34;5089738;28;20016;-43
2022/07/19 03:45:31;;;;;;;7.43;2.60;;;;;;;22.40;47.64;100329.72;5090228;28;20024;-40
2022/07/19 03:47:56;;;;;;;4.75;2.30;;;;;;;22.74;47.94;100331.13;5090349;28;20035;-40
2022/07/19 03:50:21;;;;;;;5.53;2.78;;;;;;;22.65;48.25;100338.97;5089939;28;20503;-43
2022/07/19 03:52:47;;;;;;;4.45;3.08;;;;;;;23.15;47.40;100333.84;5089622;28;20028;-41
2022/07/19 03:55:12;;;;;;;6.80;3.65;;;;;;;23.43;46.75;100332.47;5091061;28;20390;-36
2022/07/19 03:57:38;;;;;;;7.03;3.45;;;;;;;23.90;45.83;100344.88;5088852;28;20544;-35
2022/07/19 04:00:04;;;;;;;11.18;2.78;;;;;;;24.14;45.52;100339.59;5071578;28;20035;-37
2022/07/19 04:02:30;;;;;;;10.45;2.45;;;;;;;24.65;44.42;100343.13;5089235;28;20639;-43
2022/07/19 04:04:55;;;;;;;7.45;2.72;;;;;;;24.72;43.99;100349.06;5088723;28;20046;-43
2022/07/19 04:07:21;;;;;;;8.13;2.30;;;;;;;24.95;43.51;100347.53;5092615;28;20019;-42
2022/07/19 04:09:46;;;;;;;5.60;2.28;;;;;;;25.07;43.30;100349.88;5093911;28;20020;-37
2022/07/19 04:12:11;;;;;;;5.88;2.63;;;;;;;25.44;41.56;100341.13;5092628;28;20446;-37
2022/07/19 04:14:37;;;;;;;8.55;3.97;;;;;;;25.52;41.95;100345.94;5092247;28;20180;-37
2022/07/19 04:17:04;;;;;;;9.00;3.25;;;;;;;25.69;41.56;100342.75;5092726;28;20042;-36
2022/07/19 04:19:30;;;;;;;5.88;3.92;;;;;;;26.12;41.03;100345.53;5093277;28;20020;-37
2022/07/19 04:21:55;;;;;;;7.22;2.90;;;;;;;26.07;40.85;100342.88;5091888;28;20032;-38
2022/07/19 04:24:21;;;;;;;9.88;2.90;;;;;;;26.27;40.67;100343.69;5092747;28;20020;-37
2022/07/19 04:26:46;;;;;;;6.45;2.85;;;;;;;26.74;39.79;100344.69;5093307;28;20024;-35
2022/07/19 04:29:11;;;;;;;12.43;7.38;;;;;;;27.09;39.44;100343.28;5093399;28;20023;-37
2022/07/19 04:31:37;;;;;;;11.82;5.07;;;;;;;27.48;38.66;100353.00;5092922;28;20544;-38
2022/07/19 04:34:02;;;;;;;9.25;4.00;;;;;;;27.55;38.05;100346.31;5092266;28;20054;-37
2022/07/19 04:36:28;;;;;;;9.68;3.35;;;;;;;27.61;37.96;100342.38;5092875;28;20027;-43
2022/07/19 04:38:53;;;;;;;8.00;3.10;;;;;;;27.75;37.77;100345.91;5093120;28;20389;-45
2022/07/19 04:41:19;;;;;;;6.03;2.92;;;;;;;27.67;37.50;100349.38;5092872;28;20028;-42
2022/07/19 04:43:44;;;;;;;9.23;2.85;;;;;;;27.39;37.98;100354.00;5092765;28;20016;-43
2022/07/19 04:46:09;;;;;;;9.55;3.20;;;;;;;27.90;37.00;100354.97;5092570;28;20024;-45
2022/07/19 04:48:35;;;;;;;7.55;2.90;;;;;;;27.37;38.20;100353.50;5092647;28;20475;-43
2022/07/19 04:51:00;;;;;;;7.13;2.40;;;;;;;25.91;40.23;100357.75;5092298;28;20369;-45
2022/07/19 04:53:26;;;;;;;6.10;2.53;;;;;;;25.31;41.43;100341.81;5092122;28;20154;-43
2022/07/19 04:55:52;;;;;;;8.30;3.10;;;;;;;25.80;40.72;100350.81;5091837;28;20024;-43
2022/07/19 04:58:17;;;;;;;6.25;2.63;;;;;;;26.23;39.72;100353.56;5092313;28;20016;-42
2022/07/19 05:00:42;;;;;;;10.50;2.67;;;;;;;26.39;39.40;100356.91;5083380;28;20481;-42
2022/07/19 05:03:08;;;;;;;4.03;2.10;;;;;;;27.18;38.37;100361.72;5071843;28;20447;-43
2022/07/19 05:05:33;;;;;;;7.90;2.53;;;;;;;27.46;37.53;100360.69;5072194;28;20078;-44
2022/07/19 05:07:59;;;;;;;4.70;2.20;;;;;;;28.38;36.18;100357.22;5071604;28;20425;-43
2022/07/19 05:10:24;;;;;;;7.70;2.60;;;;;;;27.69;36.79;100356.13;5071516;28;20028;-45
2022/07/19 05:12:50;;;;;;;5.45;2.30;;;;;;;27.75;36.80;100356.06;5071367;28;20040;-43
2022/07/19 05:15:15;;;;;;;7.63;2.60;;;;;;;28.28;36.26;100364.53;5071741;28;20032;-42
2022/07/19 05:17:41;;;;;;;9.07;3.10;;;;;;;28.67;35.72;100362.31;5070140;28;20024;-43
2022/07/19 05:20:07;;;;;;;10.68;4.03;;;;;;;29.31;35.00;100359.38;5071662;28;20020;-44
2022/07/19 05:22:33;;;;;;;9.73;2.83;;;;;;;29.54;34.40;100356.59;5071303;28;20028;-41
2022/07/19 05:24:59;;;;;;;7.13;2.63;;;;;;;29.00;35.18;100367.56;5071226;28;20024;-42
2022/07/19 05:27:25;;;;;;;5.97;2.60;;;;;;;28.99;34.96;100358.53;5072989;28;20488;-41
2022/07/19 05:29:50;;;;;;;8.65;2.97;;;;;;;28.75;35.08;100360.75;5091265;28;20043;-43
2022/07/19 05:32:16;;;;;;;5.38;2.13;;;;;;;28.76;35.06;100365.94;5091502;28;20035;-41
2022/07/19 05:34:42;;;;;;;5.07;2.13;;;;;;;29.41;33.47;100359.09;5091202;28;20525;-44
2022/07/19 05:37:07;;;;;;;7.70;2.30;;;;;;;28.72;34.59;100359.47;5091058;28;20024;-43
2022/07/19 05:39:33;;;;;;;5.30;2.50;;;;;;;28.81;34.97;100365.00;5091473;28;20024;-43
2022/07/19 05:41:58;;;;;;;8.63;2.40;;;;;;;28.95;34.71;100329.34;5091861;28;20076;-42
2022/07/19 05:44:24;;;;;;;9.90;2.90;;;;;;;29.48;34.05;100355.94;5091218;28;20039;-42
2022/07/19 05:46:49;;;;;;;12.25;3.08;;;;;;;29.96;33.43;100355.16;5091826;28;20144;-44
2022/07/19 05:49:14;;;;;;;7.40;2.35;;;;;;;30.37;32.36;100355.91;5091181;28;20040;-45
2022/07/19 05:51:40;;;;;;;6.95;2.30;;;;;;;29.98;32.82;100363.88;5091039;28;20538;-42
2022/07/19 05:54:07;;;;;;;7.88;2.92;;;;;;;29.99;33.17;100356.47;5091248;28;20039;-42
2022/07/19 05:56:32;;;;;;;9.90;3.05;;;;;;;30.18;32.66;100358.91;5091183;28;20456;-44
2022/07/19 05:58:58;;;;;;;10.52;3.10;;;;;;;30.18;32.08;100370.69;5091140;28;20115;-44
2022/07/19 06:01:24;;;;;;;9.18;2.47;;;;;;;31.14;31.03;100362.47;5078094;28;20055;-41
2022/07/19 06:03:55;;;;;;;4.95;2.38;;;;;;;31.09;30.63;100362.66;5070931;28;20056;-43
2022/07/19 06:06:21;;;;;;;7.32;2.25;;;;;;;30.96;31.14;100363.66;5070919;28;20020;-43
2022/07/19 06:08:47;;;;;;;3.90;2.20;;;;;;;31.06;31.26;100365.25;5070581;28;20020;-43
2022/07/19 06:11:14;;;;;;;7.75;2.20;;;;;;;31.16;31.33;100360.19;5069140;28;20364;-46
2022/07/19 06:13:39;;;;;;;9.00;2.05;;;;;;;31.53;30.50;100365.31;5069669;28;20028;-46
2022/07/19 06:16:05;;;;;;;3.72;1.85;;;;;;;32.74;28.35;100360.19;5070281;28;20029;-44
2022/07/19 06:18:34;;;;;;;7.20;2.78;;;;;;;31.94;29.06;100363.81;5070168;28;20026;-43
2022/07/19 06:21:04;;;;;;;4.57;2.17;;;;;;;31.94;29.33;100363.81;5069738;28;20597;-46
2022/07/19 06:23:30;;;;;;;4.47;2.17;;;;;;;32.00;29.24;100361.66;5069912;28;20016;-42
2022/07/19 06:25:56;;;;;;;5.15;1.98;;;;;;;31.91;29.44;100359.78;5070074;28;20496;-45
2022/07/19 06:28:21;;;;;;;5.00;2.00;;;;;;;32.46;29.20;100366.25;5079867;28;20043;-43
2022/07/19 06:30:47;;;;;;;10.20;3.97;;;;;;;32.47;28.58;100362.34;5090090;28;20497;-44
2022/07/19 06:33:12;;;;;;;6.25;3.03;;;;;;;32.04;29.12;100366.19;5089698;28;20024;-45
2022/07/19 06:35:40;;;;;;;7.57;2.42;;;;;;;32.16;29.29;100359.97;5090246;28;20030;-44
2022/07/19 06:38:05;;;;;;;4.53;1.88;;;;;;;32.25;28.82;100360.72;5090515;28;20024;-41
2022/07/19 06:40:31;;;;;;;3.63;2.22;;;;;;;32.62;28.37;100363.69;5090154;28;20400;-43
2022/07/19 06:42:56;;;;;;;4.20;1.98;;;;;;;33.07;28.33;100360.19;5089221;28;20035;-42
2022/07/19 06:45:22;;;;;;;2.95;1.77;;;;;;;32.98;28.04;100365.00;5090135;28;20027;-42
2022/07/19 06:47:47;;;;;;;5.43;1.83;;;;;;;32.99;27.89;100360.28;5090096;28;20525;-43
2022/07/19 06:50:13;;;;;;;9.60;2.20;;;;;;;32.91;27.98;100361.97;5089573;28;20113;-44
2022/07/19 06:52:38;;;;;;;8.63;3.00;;;;;;;32.75;28.22;100349.97;5089542;28;20570;-37
2022/07/19 06:55:04;;;;;;;10.48;2.88;;;;;;;32.96;27.86;100347.16;5089847;28;20023;-36
2022/07/19 06:57:29;;;;;;;9.50;2.30;;;;;;;33.76;26.76;100349.53;5089882;28;20020;-43
2022/07/19 06:59:55;;;;;;;4.13;2.00;;;;;;;33.37;27.52;100349.00;5089669;28;20024;-42
2022/07/19 07:02:20;;;;;;;5.72;2.10;;;;;;;33.38;27.52;100350.63;5089470;28;20448;-42
2022/07/19 07:04:46;;;;;;;4.85;1.90;;;;;;;33.49;27.39;100342.69;5088536;28;20082;-42
2022/07/19 07:07:11;;;;;;;5.25;1.90;;;;;;;33.77;26.83;100337.31;5089814;28;20073;-43
2022/07/19 07:09:36;;;;;;;4.88;2.10;;;;;;;34.05;26.48;100342.13;5089710;28;20091;-37
2022/07/19 07:12:02;;;;;;;6.00;2.25;;;;;;;34.49;26.37;100333.97;5089587;28;20517;-36
2022/07/19 07:14:27;;;;;;;8.93;2.80;;;;;;;34.05;26.58;100320.84;5088195;28;20180;-37
2022/07/19 07:16:53;;;;;;;4.97;2.28;;;;;;;34.15;27.04;100336.13;5078006;28;20016;-37
2022/07/19 07:19:18;;;;;;;3.85;2.00;;;;;;;34.27;26.69;100338.06;5078484;28;20130;-37
2022/07/19 07:21:44;;;;;;;8.93;2.53;;;;;;;34.74;25.89;100336.66;5069320;28;20020;-37
2022/07/19 07:24:09;;;;;;;5.93;2.63;;;;;;;34.56;26.23;100334.19;5069447;28;20020;-37
2022/07/19 07:26:35;;;;;;;4.85;2.75;;;;;;;34.83;25.58;100334.56;5077576;28;20453;-36
2022/07/19 07:29:00;;;;;;;7.15;2.70;;;;;;;34.39;25.70;100332.50;5074166;28;20022;-36
2022/07/19 07:31:26;;;;;;;7.10;2.53;;;;;;;34.39;25.79;100335.28;5081300;28;20056;-36
2022/07/19 07:33:51;;;;;;;7.03;4.07;;;;;;;34.49;26.06;100330.41;5087505;28;20032;-37
2022/07/19 07:36:17;;;;;;;4.78;2.13;;;;;;;34.45;26.36;100328.34;5088453;28;20456;-37
2022/07/19 07:38:43;;;;;;;9.63;1.83;;;;;;;35.12;25.17;100324.25;5088986;28;20130;-36
2022/07/19 07:41:09;;;;;;;9.00;3.03;;;;;;;35.16;24.29;100325.94;5091479;28;20028;-37
2022/07/19 07:43:36;;;;;;;4.55;2.00;;;;;;;35.18;24.16;100320.88;5093848;28;20027;-38
2022/07/19 07:46:01;;;;;;;5.68;2.20;;;;;;;34.95;24.73;100323.41;5093916;28;20101;-37
2022/07/19 07:48:27;;;;;;;4.97;2.03;;;;;;;34.99;24.46;100321.53;5094245;28;20032;-37
2022/07/19 07:50:52;;;;;;;4.93;1.80;;;;;;;35.24;24.62;100318.63;5093536;28;20071;-37
2022/07/19 07:53:18;;;;;;;6.82;2.13;;;;;;;35.00;23.95;100323.16;5093416;28;20035;-38
2022/07/19 07:55:43;;;;;;;7.72;3.83;;;;;;;34.91;24.24;100317.00;5093515;28;20035;-37
2022/07/19 07:58:12;;;;;;;4.88;2.20;;;;;;;34.99;23.39;100320.75;5091712;28;20024;-37
2022/07/19 08:00:39;;;;;;;6.30;2.95;;;;;;;34.81;24.29;100310.03;5091439;28;20153;-37
2022/07/19 08:03:05;;;;;;;4.57;2.50;;;;;;;35.00;23.58;100312.09;5091513;28;20024;-37
2022/07/19 08:05:31;;;;;;;4.90;2.08;;;;;;;35.28;23.27;100316.78;5091791;28;20028;-37
2022/07/19 08:07:58;;;;;;;7.18;1.83;;;;;;;35.28;23.14;100300.19;5091805;28;20217;-37
2022/07/19 08:10:25;;;;;;;4.38;1.60;;;;;;;35.02;21.84;100307.03;5092113;28;20028;-37
2022/07/19 08:12:51;;;;;;;3.42;1.98;;;;;;;33.40;22.30;100314.44;5092582;28;20104;-37
2022/07/19 08:15:17;;;;;;;4.95;1.88;;;;;;;33.86;21.61;100310.41;5093135;28;20023;-37
2022/07/19 08:17:42;;;;;;;6.47;2.25;;;;;;;34.27;21.46;100311.28;5093145;28;20110;-38
2022/07/19 08:20:08;;;;;;;3.25;1.95;;;;;;;35.38;21.06;100307.16;5093124;28;20512;-37
2022/07/19 08:22:34;;;;;;;6.05;2.00;;;;;;;35.23;20.40;100297.69;5092759;28;20051;-37
2022/07/19 08:24:59;;;;;;;3.65;1.88;;;;;;;34.93;19.66;100292.56;5092905;28;20102;-38
2022/07/19 08:27:25;;;;;;;4.80;1.83;;;;;;;34.45;20.95;100288.88;5091120;28;20081;-37
2022/07/19 08:29:50;;;;;;;2.85;1.70;;;;;;;33.74;21.55;100285.59;5072632;28;20020;-37
2022/07/19 08:32:16;;;;;;;2.75;1.80;;;;;;;33.27;22.15;100289.59;5072318;28;20078;-37
2022/07/19 08:34:41;;;;;;;7.35;1.92;;;;;;;33.80;21.91;100280.66;5072111;28;20021;-37
2022/07/19 08:37:07;;;;;;;2.53;1.63;;;;;;;33.55;22.57;100282.56;5072280;28;20495;-36
2022/07/19 08:39:32;;;;;;;4.28;1.50;;;;;;;33.86;20.90;100282.00;5070818;28;20035;-37
2022/07/19 08:41:58;;;;;;;4.20;1.70;;;;;;;34.40;20.41;100278.06;5072050;28;20060;-37
2022/07/19 08:44:23;;;;;;;4.15;1.48;;;;;;;34.46;19.64;100283.00;5071985;28;20020;-37
2022/07/19 08:46:49;;;;;;;2.60;1.40;;;;;;;34.15;19.18;100274.56;5072074;28;20028;-37
2022/07/19 08:49:15;;;;;;;2.17;1.35;;;;;;;34.93;18.63;100275.19;5072309;28;20024;-36
2022/07/19 08:51:45;;;;;;;2.38;1.60;;;;;;;35.16;18.98;100281.69;5071877;28;20056;-37
2022/07/19 08:54:11;;;;;;;2.42;1.40;;;;;;;34.45;19.25;100270.34;5072106;28;20067;-36
2022/07/19 08:59:23;;;;;;;3.30;1.77;;;;;;;33.42;20.64;100262.50;5072316;28;20040;-37
2022/07/19 09:01:48;;;;;;;2.30;1.70;;;;;;;33.45;20.04;100270.88;5071742;28;20058;-36
2022/07/19 09:04:16;;;;;;;3.97;1.45;;;;;;;32.98;20.88;100262.22;5071659;28;20096;-36
2022/07/19 09:06:47;;;;;;;1.67;1.30;;;;;;;33.48;20.29;100263.88;5071877;28;20016;-37
2022/07/19 09:09:21;;;;;;;2.92;1.70;;;;;;;33.07;21.47;100272.00;5071878;28;20396;-38
2022/07/19 09:11:49;;;;;;;3.63;1.63;;;;;;;33.02;20.45;100266.69;5071594;28;20020;-38
2022/07/19 09:14:17;;;;;;;5.32;1.55;;;;;;;33.02;21.32;100261.19;5072233;28;20020;-37
2022/07/19 09:16:52;;;;;;;5.03;1.70;;;;;;;33.32;20.83;100263.75;5072337;28;20032;-37
2022/07/19 09:19:18;;;;;;;2.72;1.48;;;;;;;33.09;21.24;100255.91;5071995;28;20024;-37
2022/07/19 09:22:01;;;;;;;2.90;1.83;;;;;;;33.36;21.62;100248.13;5072148;28;20515;-38
2022/07/19 09:24:29;;;;;;;2.22;1.50;;;;;;;33.65;21.25;100246.28;5071272;28;20063;-37
2022/07/19 09:27:00;;;;;;;2.30;1.65;;;;;;;33.79;20.93;100241.19;5070916;28;20013;-37
2022/07/19 09:29:27;;;;;;;6.00;1.75;;;;;;;33.95;21.32;100240.47;5089522;28;20034;-37
2022/07/19 09:32:07;;;;;;;2.63;1.60;;;;;;;33.97;20.16;100232.66;5091605;28;20034;-36
2022/07/19 09:34:36;;;;;;;2.70;1.52;;;;;;;33.53;21.07;100235.22;5091235;28;20024;-36
2022/07/19 09:37:11;;;;;;;1.90;1.65;;;;;;;33.29;21.74;100251.44;5091370;28;20480;-37
2022/07/19 09:39:41;;;;;;;3.38;1.60;;;;;;;33.37;20.89;100241.44;5091606;28;20099;-37
2022/07/19 09:42:09;;;;;;;5.82;1.50;;;;;;;32.58;21.67;100246.25;5091528;28;20411;-36
2022/07/19 09:44:35;;;;;;;5.40;1.90;;;;;;;31.83;22.25;100242.31;5091198;28;20375;-38
2022/07/19 09:47:01;;;;;;;3.78;1.65;;;;;;;32.93;21.17;100244.72;5091671;28;20420;-38
2022/07/19 09:49:27;;;;;;;2.58;1.60;;;;;;;32.40;21.55;100243.66;5091420;28;20024;-37
2022/07/19 09:51:54;;;;;;;2.85;1.70;;;;;;;32.43;22.28;100239.44;5091005;28;20048;-37
2022/07/19 09:54:25;;;;;;;2.58;1.50;;;;;;;32.62;22.49;100230.69;5091016;28;20097;-37
2022/07/19 09:56:52;;;;;;;2.70;1.50;;;;;;;33.27;21.43;100233.66;5091436;28;20024;-37
2022/07/19 09:59:18;;;;;;;2.75;1.58;;;;;;;33.67;21.33;100231.00;5091076;28;20028;-37
2022/07/19 10:01:48;;;;;;;1.50;1.30;;;;;;;34.11;20.66;100235.81;5090904;28;20024;-37
2022/07/19 10:04:16;;;;;;;2.78;1.60;;;;;;;32.86;21.72;100240.94;5090324;28;20023;-37
2022/07/19 10:06:43;;;;;;;2.97;1.50;;;;;;;32.34;21.80;100243.06;5090607;28;20484;-37
2022/07/19 10:09:11;;;;;;;3.05;1.50;;;;;;;31.53;23.02;100242.38;5091179;28;20040;-37
2022/07/19 10:11:37;;;;;;;7.53;1.60;;;;;;;31.59;23.00;100225.66;5091094;28;20028;-37
2022/07/19 10:14:03;;;;;;;6.80;1.50;;;;;;;31.50;23.37;100229.28;5090550;28;20034;-37
2022/07/19 10:16:48;;;;;;;3.08;1.42;;;;;;;31.89;23.27;100213.47;5090843;28;20074;-37
2022/07/19 10:19:18;;;;;;;2.05;1.42;;;;;;;32.40;22.48;100220.81;5091501;28;20031;-36
2022/07/19 10:21:46;;;;;;;2.08;1.50;;;;;;;32.73;22.20;100223.59;5090629;28;20039;-37
2022/07/19 10:24:12;;;;;;;1.88;1.33;;;;;;;32.53;22.14;100219.72;5090999;28;20202;-38
2022/07/19 10:26:40;;;;;;;6.03;1.83;;;;;;;32.47;22.56;100215.56;5090392;28;20109;-36
2022/07/19 10:29:16;;;;;;;4.03;1.67;;;;;;;32.22;22.54;100206.44;5090857;28;20309;-37
2022/07/19 10:31:43;;;;;;;2.45;1.33;;;;;;;32.15;22.38;100199.50;5090795;28;20064;-36
2022/07/19 10:34:20;;;;;;;5.13;1.45;;;;;;;30.97;24.17;100206.69;5090558;28;20099;-38
2022/07/19 10:36:48;;;;;;;2.85;1.30;;;;;;;31.16;24.08;100197.25;5090581;28;20059;-37
2022/07/19 10:39:24;;;;;;;4.25;1.80;;;;;;;30.90;24.19;100194.63;5090545;28;20031;-36
2022/07/19 10:42:04;;;;;;;5.00;1.70;;;;;;;31.10;23.89;100191.13;5090605;28;20107;-38
2022/07/19 10:44:31;;;;;;;3.33;1.60;;;;;;;31.41;23.29;100191.94;5090039;28;20034;-37
2022/07/19 10:46:56;;;;;;;2.28;1.50;;;;;;;31.55;23.69;100193.34;5090220;28;20047;-37
2022/07/19 10:49:45;;;;;;;2.63;1.70;;;;;;;31.91;23.10;100193.84;5090362;28;20109;-37
2022/07/19 10:52:28;;;;;;;2.25;1.60;;;;;;;32.18;22.37;100187.03;5090320;28;20066;-38
2022/07/19 10:55:16;;;;;;;2.80;1.70;;;;;;;32.18;23.12;100188.97;5089970;28;20381;-35
2022/07/19 10:57:46;;;;;;;2.40;1.45;;;;;;;32.43;22.56;100178.84;5090009;28;20028;-38
2022/07/19 11:00:26;;;;;;;3.65;1.60;;;;;;;32.68;22.14;100174.22;5087279;28;20033;-38
2022/07/19 11:03:12;;;;;;;3.22;1.52;;;;;;;32.58;22.11;100171.91;5069940;28;20024;-36
2022/07/19 11:05:46;;;;;;;2.17;1.50;;;;;;;32.29;22.81;100181.88;5070044;28;20105;-37
2022/07/19 11:08:11;;;;;;;4.35;1.60;;;;;;;32.19;22.10;100172.13;5069577;28;20028;-37
2022/07/19 11:10:37;;;;;;;3.13;1.70;;;;;;;31.75;22.80;100163.41;5069638;28;20050;-36
2022/07/19 11:13:02;;;;;;;2.22;1.63;;;;;;;31.98;22.31;100160.31;5069808;28;20030;-37
2022/07/19 11:15:28;;;;;;;5.60;1.60;;;;;;;32.24;22.80;100160.91;5069751;28;20031;-36
2022/07/19 11:18:04;;;;;;;2.45;1.30;;;;;;;32.71;22.78;100155.06;5069875;28;20435;-37
2022/07/19 11:20:32;;;;;;;3.58;1.60;;;;;;;33.22;22.52;100146.44;5069886;28;20024;-37
2022/07/19 11:22:59;;;;;;;3.20;1.40;;;;;;;33.53;21.15;100146.97;5069651;28;20100;-37
2022/07/19 11:25:29;;;;;;;2.30;1.50;;;;;;;33.72;21.77;100136.16;5070036;28;20107;-37